sensor_id;sensor_type;location;lat;lon;timestamp;pressure;altitude;pressure_sealevel;temperature;humidity
23677;BME280;31493;49.058;12.190;2023-05-19T00:01:52;96618.94;;;9.88;83.53
23677;BME280;31493;49.058;12.190;2023-05-19T00:04:20;96619.69;;;9.90;84.24
23677;BME280;31493;49.058;12.190;2023-05-19T00:06:49;96628.53;;;9.86;84.54
23677;BME280;31493;49.058;12.190;2023-05-19T00:09:18;96616.28;;;9.90;85.29
23677;BME280;31493;49.058;12.190;2023-05-19T00:11:47;96606.53;;;9.79;86.20
23677;BME280;31493;49.058;12.190;2023-05-19T00:14:14;96616.72;;;9.66;86.99
23677;BME280;31493;49.058;12.190;2023-05-19T00:16:42;96613.94;;;9.69;86.53
23677;BME280;31493;49.058;12.190;2023-05-19T00:19:09;96609.22;;;9.62;86.75
23677;BME280;31493;49.058;12.190;2023-05-19T00:21:37;96603.78;;;9.66;86.74
23677;BME280;31493;49.058;12.190;2023-05-19T00:24:06;96603.56;;;9.55;86.68
23677;BME280;31493;49.058;12.190;2023-05-19T00:26:33;96607.88;;;9.71;87.18
23677;BME280;31493;49.058;12.190;2023-05-19T00:29:01;96610.31;;;9.58;87.27
23677;BME280;31493;49.058;12.190;2023-05-19T00:31:28;96596.38;;;9.60;87.63
23677;BME280;31493;49.058;12.190;2023-05-19T00:33:56;96599.13;;;9.57;87.75
23677;BME280;31493;49.058;12.190;2023-05-19T00:36:23;96599.78;;;9.45;88.17
23677;BME280;31493;49.058;12.190;2023-05-19T00:38:50;96608.66;;;9.41;88.66
23677;BME280;31493;49.058;12.190;2023-05-19T00:41:17;96592.97;;;9.44;88.67
23677;BME280;31493;49.058;12.190;2023-05-19T00:43:44;96590.13;;;9.49;88.64
23677;BME280;31493;49.058;12.190;2023-05-19T00:46:13;96585.41;;;9.41;88.66
23677;BME280;31493;49.058;12.190;2023-05-19T00:48:40;96598.41;;;9.39;89.18
23677;BME280;31493;49.058;12.190;2023-05-19T00:51:09;96590.31;;;9.30;89.84
23677;BME280;31493;49.058;12.190;2023-05-19T00:53:39;96589.13;;;9.20;90.21
23677;BME280;31493;49.058;12.190;2023-05-19T00:56:07;96582.41;;;9.17;90.33
23677;BME280;31493;49.058;12.190;2023-05-19T00:58:35;96581.38;;;9.20;90.66
23677;BME280;31493;49.058;12.190;2023-05-19T01:01:04;96587.06;;;9.10;91.05
23677;BME280;31493;49.058;12.190;2023-05-19T01:03:34;96586.38;;;9.07;91.69
23677;BME280;31493;49.058;12.190;2023-05-19T01:06:02;96580.81;;;8.99;92.03
23677;BME280;31493;49.058;12.190;2023-05-19T01:08:31;96577.06;;;9.04;92.12
23677;BME280;31493;49.058;12.190;2023-05-19T01:10:58;96576.56;;;8.98;92.37
23677;BME280;31493;49.058;12.190;2023-05-19T01:13:26;96576.47;;;8.99;92.76
23677;BME280;31493;49.058;12.190;2023-05-19T01:16:00;96586.72;;;9.01;92.92
23677;BME280;31493;49.058;12.190;2023-05-19T01:18:39;96585.69;;;8.87;93.43
23677;BME280;31493;49.058;12.190;2023-05-19T01:21:39;96581.13;;;8.93;93.70
23677;BME280;31493;49.058;12.190;2023-05-19T01:24:28;96588.19;;;8.89;94.00
23677;BME280;31493;49.058;12.190;2023-05-19T01:27:21;96591.69;;;8.88;93.82
23677;BME280;31493;49.058;12.190;2023-05-19T01:30:14;96579.28;;;8.95;92.87
23677;BME280;31493;49.058;12.190;2023-05-19T01:32:43;96572.38;;;8.79;92.51
23677;BME280;31493;49.058;12.190;2023-05-19T01:35:11;96593.75;;;8.81;91.94
23677;BME280;31493;49.058;12.190;2023-05-19T01:37:41;96580.72;;;8.84;91.93
23677;BME280;31493;49.058;12.190;2023-05-19T01:40:10;96582.13;;;8.90;91.54
23677;BME280;31493;49.058;12.190;2023-05-19T01:42:39;96573.47;;;8.91;91.96
23677;BME280;31493;49.058;12.190;2023-05-19T01:45:09;96570.28;;;8.86;91.38
23677;BME280;31493;49.058;12.190;2023-05-19T01:47:40;96569.03;;;8.93;91.64
23677;BME280;31493;49.058;12.190;2023-05-19T01:50:08;96566.47;;;8.93;91.49
23677;BME280;31493;49.058;12.190;2023-05-19T01:52:35;96569.47;;;8.85;91.86
23677;BME280;31493;49.058;12.190;2023-05-19T01:55:03;96564.31;;;8.85;92.20
23677;BME280;31493;49.058;12.190;2023-05-19T01:57:37;96562.38;;;8.89;92.31
23677;BME280;31493;49.058;12.190;2023-05-19T02:00:10;96570.78;;;8.93;91.84
23677;BME280;31493;49.058;12.190;2023-05-19T02:02:51;96563.56;;;8.99;92.04
23677;BME280;31493;49.058;12.190;2023-05-19T02:05:22;96565.78;;;8.89;92.39
23677;BME280;31493;49.058;12.190;2023-05-19T02:07:58;96566.09;;;8.83;92.63
23677;BME280;31493;49.058;12.190;2023-05-19T02:10:28;96565.97;;;8.86;92.72
23677;BME280;31493;49.058;12.190;2023-05-19T02:12:59;96550.88;;;8.79;92.86
23677;BME280;31493;49.058;12.190;2023-05-19T02:15:33;96552.22;;;8.86;92.90
23677;BME280;31493;49.058;12.190;2023-05-19T02:18:04;96566.19;;;8.82;93.10
23677;BME280;31493;49.058;12.190;2023-05-19T02:20:31;96548.38;;;8.77;93.08
23677;BME280;31493;49.058;12.190;2023-05-19T02:22:58;96556.69;;;8.82;93.66
23677;BME280;31493;49.058;12.190;2023-05-19T02:25:25;96555.13;;;8.80;94.29
23677;BME280;31493;49.058;12.190;2023-05-19T02:27:53;96552.13;;;8.72;95.07
23677;BME280;31493;49.058;12.190;2023-05-19T02:30:20;96551.44;;;8.68;95.06
23677;BME280;31493;49.058;12.190;2023-05-19T02:32:48;96550.38;;;8.72;94.90
23677;BME280;31493;49.058;12.190;2023-05-19T02:35:16;96543.19;;;8.77;94.39
23677;BME280;31493;49.058;12.190;2023-05-19T02:37:43;96550.69;;;8.66;94.77
23677;BME280;31493;49.058;12.190;2023-05-19T02:40:11;96548.19;;;8.65;95.15
23677;BME280;31493;49.058;12.190;2023-05-19T02:42:37;96548.94;;;8.67;95.10
23677;BME280;31493;49.058;12.190;2023-05-19T02:45:05;96548.69;;;8.71;95.00
23677;BME280;31493;49.058;12.190;2023-05-19T02:47:32;96561.34;;;8.76;94.91
23677;BME280;31493;49.058;12.190;2023-05-19T02:50:01;96556.59;;;8.68;94.84
23677;BME280;31493;49.058;12.190;2023-05-19T02:52:28;96552.44;;;8.66;94.91
23677;BME280;31493;49.058;12.190;2023-05-19T02:54:55;96546.75;;;8.59;95.15
23677;BME280;31493;49.058;12.190;2023-05-19T02:57:22;96538.34;;;8.71;94.94
23677;BME280;31493;49.058;12.190;2023-05-19T02:59:49;96540.06;;;8.72;95.21
23677;BME280;31493;49.058;12.190;2023-05-19T03:02:16;96535.72;;;8.73;95.11
23677;BME280;31493;49.058;12.190;2023-05-19T03:04:43;96541.13;;;8.68;94.19
23677;BME280;31493;49.058;12.190;2023-05-19T03:07:12;96534.13;;;8.70;94.45
23677;BME280;31493;49.058;12.190;2023-05-19T03:09:40;96537.53;;;8.71;94.50
23677;BME280;31493;49.058;12.190;2023-05-19T03:12:07;96541.94;;;8.69;95.05
23677;BME280;31493;49.058;12.190;2023-05-19T03:14:34;96539.38;;;8.69;94.95
23677;BME280;31493;49.058;12.190;2023-05-19T03:17:03;96536.88;;;8.67;95.06
23677;BME280;31493;49.058;12.190;2023-05-19T03:19:32;96530.94;;;8.65;95.52
23677;BME280;31493;49.058;12.190;2023-05-19T03:21:59;96549.78;;;8.67;96.36
23677;BME280;31493;49.058;12.190;2023-05-19T03:24:27;96546.75;;;8.59;96.00
23677;BME280;31493;49.058;12.190;2023-05-19T03:26:54;96558.81;;;8.58;97.19
23677;BME280;31493;49.058;12.190;2023-05-19T03:29:21;96553.84;;;8.55;96.31
23677;BME280;31493;49.058;12.190;2023-05-19T03:31:48;96558.16;;;8.55;96.60
23677;BME280;31493;49.058;12.190;2023-05-19T03:34:16;96548.19;;;8.65;96.19
23677;BME280;31493;49.058;12.190;2023-05-19T03:36:43;96553.66;;;8.58;96.34
23677;BME280;31493;49.058;12.190;2023-05-19T03:39:10;96561.91;;;8.65;96.32
23677;BME280;31493;49.058;12.190;2023-05-19T03:41:39;96562.19;;;8.60;96.34
23677;BME280;31493;49.058;12.190;2023-05-19T03:44:06;96548.25;;;8.63;96.45
23677;BME280;31493;49.058;12.190;2023-05-19T03:46:33;96551.03;;;8.60;96.58
23677;BME280;31493;49.058;12.190;2023-05-19T03:49:00;96562.19;;;8.60;96.63
23677;BME280;31493;49.058;12.190;2023-05-19T03:51:27;96549.00;;;8.65;96.98
23677;BME280;31493;49.058;12.190;2023-05-19T03:53:54;96553.84;;;8.71;96.03
23677;BME280;31493;49.058;12.190;2023-05-19T03:56:21;96564.19;;;8.71;96.79
23677;BME280;31493;49.058;12.190;2023-05-19T03:58:52;96558.13;;;8.72;96.56
23677;BME280;31493;49.058;12.190;2023-05-19T04:01:20;96565.38;;;8.81;96.20
23677;BME280;31493;49.058;12.190;2023-05-19T04:03:47;96563.78;;;8.79;95.70
23677;BME280;31493;49.058;12.190;2023-05-19T04:06:14;96554.72;;;8.87;95.36
23677;BME280;31493;49.058;12.190;2023-05-19T04:08:42;96562.03;;;8.79;95.88
23677;BME280;31493;49.058;12.190;2023-05-19T04:11:10;96557.81;;;8.78;96.07
23677;BME280;31493;49.058;12.190;2023-05-19T04:13:37;96559.22;;;8.84;95.74
23677;BME280;31493;49.058;12.190;2023-05-19T04:16:06;96561.72;;;8.85;95.53
23677;BME280;31493;49.058;12.190;2023-05-19T04:18:33;96564.88;;;9.06;95.35
23677;BME280;31493;49.058;12.190;2023-05-19T04:21:00;96568.53;;;8.86;96.26
23677;BME280;31493;49.058;12.190;2023-05-19T04:23:27;96560.94;;;8.83;96.52
23677;BME280;31493;49.058;12.190;2023-05-19T04:25:54;96564.44;;;8.82;97.43
23677;BME280;31493;49.058;12.190;2023-05-19T04:28:21;96558.88;;;8.74;96.30
23677;BME280;31493;49.058;12.190;2023-05-19T04:30:49;96565.59;;;8.77;97.75
23677;BME280;31493;49.058;12.190;2023-05-19T04:33:17;96569.00;;;8.77;97.38
23677;BME280;31493;49.058;12.190;2023-05-19T04:35:44;96559.78;;;8.89;96.91
23677;BME280;31493;49.058;12.190;2023-05-19T04:38:12;96570.38;;;8.84;97.98
23677;BME280;31493;49.058;12.190;2023-05-19T04:40:43;96558.03;;;8.89;97.41
23677;BME280;31493;49.058;12.190;2023-05-19T04:43:10;96557.53;;;8.83;97.58
23677;BME280;31493;49.058;12.190;2023-05-19T04:45:37;96554.94;;;8.83;98.68
23677;BME280;31493;49.058;12.190;2023-05-19T04:48:07;96563.06;;;8.93;97.66
23677;BME280;31493;49.058;12.190;2023-05-19T04:50:35;96565.63;;;8.93;97.59
23677;BME280;31493;49.058;12.190;2023-05-19T04:53:03;96560.56;;;8.91;98.63
23677;BME280;31493;49.058;12.190;2023-05-19T04:55:30;96558.47;;;8.98;97.53
23677;BME280;31493;49.058;12.190;2023-05-19T04:57:57;96556.31;;;8.90;97.72
23677;BME280;31493;49.058;12.190;2023-05-19T05:00:24;96568.63;;;9.01;97.56
23677;BME280;31493;49.058;12.190;2023-05-19T05:02:51;96557.38;;;9.02;97.98
23677;BME280;31493;49.058;12.190;2023-05-19T05:05:18;96557.56;;;8.99;97.40
23677;BME280;31493;49.058;12.190;2023-05-19T05:07:47;96554.22;;;9.12;98.21
23677;BME280;31493;49.058;12.190;2023-05-19T05:10:14;96556.06;;;9.10;96.70
23677;BME280;31493;49.058;12.190;2023-05-19T05:12:41;96564.47;;;9.14;97.11
23677;BME280;31493;49.058;12.190;2023-05-19T05:15:10;96552.31;;;9.16;96.37
23677;BME280;31493;49.058;12.190;2023-05-19T05:17:37;96551.56;;;9.14;95.50
23677;BME280;31493;49.058;12.190;2023-05-19T05:20:05;96559.72;;;9.06;95.56
23677;BME280;31493;49.058;12.190;2023-05-19T05:22:33;96553.13;;;9.01;95.29
23677;BME280;31493;49.058;12.190;2023-05-19T05:25:03;96550.06;;;9.10;95.06
23677;BME280;31493;49.058;12.190;2023-05-19T05:27:31;96556.41;;;9.04;94.92
23677;BME280;31493;49.058;12.190;2023-05-19T05:29:58;96548.13;;;9.13;94.67
23677;BME280;31493;49.058;12.190;2023-05-19T05:32:25;96545.06;;;9.23;95.02
23677;BME280;31493;49.058;12.190;2023-05-19T05:34:52;96557.31;;;9.19;94.86
23677;BME280;31493;49.058;12.190;2023-05-19T05:37:19;96548.22;;;9.28;95.17
23677;BME280;31493;49.058;12.190;2023-05-19T05:39:46;96543.63;;;9.33;94.46
23677;BME280;31493;49.058;12.190;2023-05-19T05:42:15;96549.38;;;9.54;94.08
23677;BME280;31493;49.058;12.190;2023-05-19T05:44:43;96553.28;;;9.45;94.34
23677;BME280;31493;49.058;12.190;2023-05-19T05:47:12;96543.75;;;9.61;93.63
23677;BME280;31493;49.058;12.190;2023-05-19T05:49:40;96542.34;;;9.56;93.96
23677;BME280;31493;49.058;12.190;2023-05-19T05:52:10;96548.63;;;9.52;93.63
23677;BME280;31493;49.058;12.190;2023-05-19T05:54:38;96555.59;;;9.65;93.40
23677;BME280;31493;49.058;12.190;2023-05-19T05:57:06;96545.91;;;9.69;93.10
23677;BME280;31493;49.058;12.190;2023-05-19T05:59:35;96545.03;;;9.84;92.20
23677;BME280;31493;49.058;12.190;2023-05-19T06:02:03;96532.03;;;9.86;92.22
23677;BME280;31493;49.058;12.190;2023-05-19T06:04:30;96537.91;;;9.88;91.52
23677;BME280;31493;49.058;12.190;2023-05-19T06:06:58;96544.72;;;9.75;91.28
23677;BME280;31493;49.058;12.190;2023-05-19T06:09:27;96539.03;;;9.84;91.71
23677;BME280;31493;49.058;12.190;2023-05-19T06:11:57;96536.38;;;10.00;91.05
23677;BME280;31493;49.058;12.190;2023-05-19T06:14:24;96541.91;;;9.93;91.74
23677;BME280;31493;49.058;12.190;2023-05-19T06:16:53;96544.13;;;9.85;91.12
23677;BME280;31493;49.058;12.190;2023-05-19T06:19:20;96544.81;;;10.17;92.31
23677;BME280;31493;49.058;12.190;2023-05-19T06:21:49;96535.84;;;10.39;90.88
23677;BME280;31493;49.058;12.190;2023-05-19T06:24:16;96537.13;;;10.46;89.55
23677;BME280;31493;49.058;12.190;2023-05-19T06:26:44;96540.47;;;10.62;89.15
23677;BME280;31493;49.058;12.190;2023-05-19T06:29:11;96531.13;;;10.45;88.44
23677;BME280;31493;49.058;12.190;2023-05-19T06:31:38;96535.38;;;10.61;88.31
23677;BME280;31493;49.058;12.190;2023-05-19T06:34:07;96529.63;;;10.56;87.75
23677;BME280;31493;49.058;12.190;2023-05-19T06:36:35;96538.16;;;10.58;88.68
23677;BME280;31493;49.058;12.190;2023-05-19T06:39:02;96545.25;;;10.54;87.49
23677;BME280;31493;49.058;12.190;2023-05-19T06:41:29;96532.78;;;10.75;86.77
23677;BME280;31493;49.058;12.190;2023-05-19T06:43:56;96542.50;;;10.71;87.34
23677;BME280;31493;49.058;12.190;2023-05-19T06:46:23;96541.88;;;11.09;86.05
23677;BME280;31493;49.058;12.190;2023-05-19T06:48:50;96545.69;;;11.03;86.34
23677;BME280;31493;49.058;12.190;2023-05-19T06:51:18;96539.41;;;11.08;86.17
23677;BME280;31493;49.058;12.190;2023-05-19T06:53:46;96540.72;;;11.42;86.64
23677;BME280;31493;49.058;12.190;2023-05-19T06:56:13;96536.88;;;11.20;87.83
23677;BME280;31493;49.058;12.190;2023-05-19T06:58:41;96539.22;;;11.38;86.12
23677;BME280;31493;49.058;12.190;2023-05-19T07:01:08;96530.81;;;11.61;86.53
23677;BME280;31493;49.058;12.190;2023-05-19T07:03:35;96531.19;;;11.82;85.12
23677;BME280;31493;49.058;12.190;2023-05-19T07:06:02;96528.44;;;11.71;84.09
23677;BME280;31493;49.058;12.190;2023-05-19T07:08:31;96522.72;;;11.66;82.88
23677;BME280;31493;49.058;12.190;2023-05-19T07:10:59;96521.69;;;11.95;84.78
23677;BME280;31493;49.058;12.190;2023-05-19T07:13:26;96530.63;;;11.77;83.33
23677;BME280;31493;49.058;12.190;2023-05-19T07:15:53;96531.00;;;11.58;83.80
23677;BME280;31493;49.058;12.190;2023-05-19T07:18:20;96527.00;;;11.40;84.40
23677;BME280;31493;49.058;12.190;2023-05-19T07:20:47;96522.63;;;11.40;84.68
23677;BME280;31493;49.058;12.190;2023-05-19T07:23:14;96528.50;;;11.56;83.32
23677;BME280;31493;49.058;12.190;2023-05-19T07:25:43;96531.69;;;11.47;82.97
23677;BME280;31493;49.058;12.190;2023-05-19T07:28:10;96528.75;;;11.66;83.46
23677;BME280;31493;49.058;12.190;2023-05-19T07:30:37;96524.25;;;11.82;82.97
23677;BME280;31493;49.058;12.190;2023-05-19T07:33:04;96521.09;;;11.77;82.51
23677;BME280;31493;49.058;12.190;2023-05-19T07:35:31;96515.06;;;11.77;82.85
23677;BME280;31493;49.058;12.190;2023-05-19T07:37:58;96516.84;;;12.03;82.38
23677;BME280;31493;49.058;12.190;2023-05-19T07:40:25;96517.34;;;12.08;80.74
23677;BME280;31493;49.058;12.190;2023-05-19T07:42:54;96509.94;;;11.90;82.77
23677;BME280;31493;49.058;12.190;2023-05-19T07:45:21;96516.41;;;12.09;81.01
23677;BME280;31493;49.058;12.190;2023-05-19T07:47:48;96498.38;;;12.46;78.71
23677;BME280;31493;49.058;12.190;2023-05-19T07:50:15;96511.00;;;12.51;77.70
23677;BME280;31493;49.058;12.190;2023-05-19T07:52:42;96513.81;;;12.60;79.76
23677;BME280;31493;49.058;12.190;2023-05-19T07:55:09;96510.13;;;12.88;78.44
23677;BME280;31493;49.058;12.190;2023-05-19T07:57:36;96504.94;;;12.76;77.24
23677;BME280;31493;49.058;12.190;2023-05-19T08:00:06;96508.09;;;12.55;76.68
23677;BME280;31493;49.058;12.190;2023-05-19T08:02:38;96514.56;;;12.37;76.55
23677;BME280;31493;49.058;12.190;2023-05-19T08:05:06;96510.50;;;12.20;77.56
23677;BME280;31493;49.058;12.190;2023-05-19T08:07:34;96500.31;;;12.43;79.00
23677;BME280;31493;49.058;12.190;2023-05-19T08:10:01;96496.06;;;12.42;78.55
23677;BME280;31493;49.058;12.190;2023-05-19T08:12:28;96492.94;;;12.99;77.41
23677;BME280;31493;49.058;12.190;2023-05-19T08:14:55;96500.56;;;12.76;76.36
23677;BME280;31493;49.058;12.190;2023-05-19T08:17:23;96496.22;;;13.13;75.97
23677;BME280;31493;49.058;12.190;2023-05-19T08:19:51;96489.88;;;13.17;77.16
23677;BME280;31493;49.058;12.190;2023-05-19T08:22:18;96510.59;;;12.57;75.93
23677;BME280;31493;49.058;12.190;2023-05-19T08:24:45;96501.50;;;12.88;76.90
23677;BME280;31493;49.058;12.190;2023-05-19T08:27:14;96504.66;;;12.68;77.67
23677;BME280;31493;49.058;12.190;2023-05-19T08:29:41;96501.78;;;12.59;76.67
23677;BME280;31493;49.058;12.190;2023-05-19T08:32:08;96498.41;;;12.83;77.65
23677;BME280;31493;49.058;12.190;2023-05-19T08:34:37;96487.59;;;12.89;77.36
23677;BME280;31493;49.058;12.190;2023-05-19T08:37:04;96500.81;;;12.73;77.25
23677;BME280;31493;49.058;12.190;2023-05-19T08:39:32;96498.97;;;12.50;77.57
23677;BME280;31493;49.058;12.190;2023-05-19T08:41:59;96488.97;;;12.69;77.56
23677;BME280;31493;49.058;12.190;2023-05-19T08:44:27;96494.53;;;13.01;76.58
23677;BME280;31493;49.058;12.190;2023-05-19T08:46:57;96483.66;;;13.07;74.77
23677;BME280;31493;49.058;12.190;2023-05-19T08:49:26;96489.53;;;12.98;74.94
23677;BME280;31493;49.058;12.190;2023-05-19T08:51:59;96490.91;;;13.28;75.96
23677;BME280;31493;49.058;12.190;2023-05-19T08:54:32;96480.91;;;13.34;76.54
23677;BME280;31493;49.058;12.190;2023-05-19T08:57:01;96474.72;;;13.11;75.43
23677;BME280;31493;49.058;12.190;2023-05-19T08:59:30;96477.53;;;13.08;76.37
23677;BME280;31493;49.058;12.190;2023-05-19T09:01:57;96470.22;;;13.13;75.08
23677;BME280;31493;49.058;12.190;2023-05-19T09:04:25;96467.94;;;13.22;74.70
23677;BME280;31493;49.058;12.190;2023-05-19T09:06:53;96469.34;;;13.02;75.02
23677;BME280;31493;49.058;12.190;2023-05-19T09:09:22;96465.56;;;13.42;76.00
23677;BME280;31493;49.058;12.190;2023-05-19T09:11:49;96462.88;;;13.07;74.89
23677;BME280;31493;49.058;12.190;2023-05-19T09:14:16;96465.69;;;13.04;76.02
23677;BME280;31493;49.058;12.190;2023-05-19T09:16:44;96458.56;;;13.19;76.95
23677;BME280;31493;49.058;12.190;2023-05-19T09:19:14;96455.56;;;13.12;76.38
23677;BME280;31493;49.058;12.190;2023-05-19T09:21:41;96451.41;;;12.86;76.54
23677;BME280;31493;49.058;12.190;2023-05-19T09:24:10;96463.66;;;12.97;76.02
23677;BME280;31493;49.058;12.190;2023-05-19T09:26:39;96456.28;;;13.27;76.69
23677;BME280;31493;49.058;12.190;2023-05-19T09:29:10;96458.50;;;13.44;74.82
23677;BME280;31493;49.058;12.190;2023-05-19T09:31:37;96460.22;;;13.33;75.95
23677;BME280;31493;49.058;12.190;2023-05-19T09:34:10;96459.00;;;13.13;75.82
23677;BME280;31493;49.058;12.190;2023-05-19T09:36:38;96450.44;;;13.48;75.89
23677;BME280;31493;49.058;12.190;2023-05-19T09:39:11;96453.88;;;13.48;75.04
23677;BME280;31493;49.058;12.190;2023-05-19T09:41:40;96451.97;;;13.50;75.13
23677;BME280;31493;49.058;12.190;2023-05-19T09:44:11;96449.66;;;13.58;74.46
23677;BME280;31493;49.058;12.190;2023-05-19T09:46:46;96451.66;;;14.01;75.60
23677;BME280;31493;49.058;12.190;2023-05-19T09:49:17;96450.75;;;13.67;74.08
23677;BME280;31493;49.058;12.190;2023-05-19T09:51:45;96431.59;;;14.25;72.95
23677;BME280;31493;49.058;12.190;2023-05-19T09:54:14;96429.81;;;14.71;72.10
23677;BME280;31493;49.058;12.190;2023-05-19T09:56:43;96433.13;;;14.39;70.99
23677;BME280;31493;49.058;12.190;2023-05-19T09:59:10;96432.97;;;14.30;72.56
23677;BME280;31493;49.058;12.190;2023-05-19T10:01:40;96433.47;;;14.12;72.87
23677;BME280;31493;49.058;12.190;2023-05-19T10:04:12;96438.63;;;13.90;72.32
23677;BME280;31493;49.058;12.190;2023-05-19T10:06:40;96436.53;;;14.29;74.15
23677;BME280;31493;49.058;12.190;2023-05-19T10:09:07;96428.25;;;14.12;73.06
23677;BME280;31493;49.058;12.190;2023-05-19T10:11:35;96426.38;;;14.37;72.93
23677;BME280;31493;49.058;12.190;2023-05-19T10:14:04;96428.28;;;14.57;72.61
23677;BME280;31493;49.058;12.190;2023-05-19T10:16:31;96436.19;;;14.22;70.42
23677;BME280;31493;49.058;12.190;2023-05-19T10:18:59;96431.72;;;14.24;71.58
23677;BME280;31493;49.058;12.190;2023-05-19T10:21:27;96434.53;;;14.21;70.43
23677;BME280;31493;49.058;12.190;2023-05-19T10:23:54;96424.69;;;14.36;70.69
23677;BME280;31493;49.058;12.190;2023-05-19T10:26:22;96423.56;;;14.62;71.56
23677;BME280;31493;49.058;12.190;2023-05-19T10:28:50;96429.78;;;14.82;70.30
23677;BME280;31493;49.058;12.190;2023-05-19T10:31:20;96429.34;;;15.09;68.61
23677;BME280;31493;49.058;12.190;2023-05-19T10:34:13;96410.69;;;14.93;68.53
23677;BME280;31493;49.058;12.190;2023-05-19T10:36:47;96418.38;;;15.05;67.71
23677;BME280;31493;49.058;12.190;2023-05-19T10:39:17;96416.63;;;14.95;69.13
23677;BME280;31493;49.058;12.190;2023-05-19T10:41:54;96407.97;;;14.94;69.64
23677;BME280;31493;49.058;12.190;2023-05-19T10:44:32;96407.78;;;14.75;69.69
23677;BME280;31493;49.058;12.190;2023-05-19T10:47:05;96402.22;;;14.80;71.09
23677;BME280;31493;49.058;12.190;2023-05-19T10:49:33;96396.19;;;14.45;70.86
23677;BME280;31493;49.058;12.190;2023-05-19T10:52:00;96393.91;;;14.74;70.06
23677;BME280;31493;49.058;12.190;2023-05-19T10:54:40;96405.16;;;14.75;69.69
23677;BME280;31493;49.058;12.190;2023-05-19T10:57:08;96394.47;;;15.21;70.94
23677;BME280;31493;49.058;12.190;2023-05-19T10:59:39;96386.31;;;15.15;70.37
23677;BME280;31493;49.058;12.190;2023-05-19T11:02:08;96392.03;;;15.09;68.92
23677;BME280;31493;49.058;12.190;2023-05-19T11:04:38;96391.38;;;14.95;69.39
23677;BME280;31493;49.058;12.190;2023-05-19T11:07:08;96396.84;;;14.92;69.62
23677;BME280;31493;49.058;12.190;2023-05-19T11:09:39;96402.59;;;15.07;69.32
23677;BME280;31493;49.058;12.190;2023-05-19T11:12:07;96390.41;;;14.96;70.03
23677;BME280;31493;49.058;12.190;2023-05-19T11:14:35;96401.97;;;15.15;68.96
23677;BME280;31493;49.058;12.190;2023-05-19T11:17:02;96399.88;;;15.41;67.75
23677;BME280;31493;49.058;12.190;2023-05-19T11:19:33;96401.00;;;15.16;68.71
23677;BME280;31493;49.058;12.190;2023-05-19T11:22:07;96395.72;;;15.06;69.00
23677;BME280;31493;49.058;12.190;2023-05-19T11:24:35;96385.75;;;15.11;68.37
23677;BME280;31493;49.058;12.190;2023-05-19T11:27:19;96387.44;;;15.33;68.59
23677;BME280;31493;49.058;12.190;2023-05-19T11:29:47;96374.56;;;15.20;69.03
23677;BME280;31493;49.058;12.190;2023-05-19T11:32:14;96390.34;;;15.19;68.03
23677;BME280;31493;49.058;12.190;2023-05-19T11:34:44;96392.25;;;15.17;67.51
23677;BME280;31493;49.058;12.190;2023-05-19T11:37:11;96369.88;;;15.67;66.76
23677;BME280;31493;49.058;12.190;2023-05-19T11:39:38;96384.00;;;16.16;66.14
23677;BME280;31493;49.058;12.190;2023-05-19T11:42:07;96376.09;;;16.06;64.93
23677;BME280;31493;49.058;12.190;2023-05-19T11:44:35;96378.72;;;16.37;65.51
23677;BME280;31493;49.058;12.190;2023-05-19T11:47:03;96373.72;;;16.24;65.99
23677;BME280;31493;49.058;12.190;2023-05-19T11:49:30;96371.31;;;16.11;65.19
23677;BME280;31493;49.058;12.190;2023-05-19T11:52:00;96386.28;;;15.79;64.92
23677;BME280;31493;49.058;12.190;2023-05-19T11:54:31;96372.13;;;16.02;64.96
23677;BME280;31493;49.058;12.190;2023-05-19T11:57:01;96382.75;;;15.48;64.73
23677;BME280;31493;49.058;12.190;2023-05-19T11:59:29;96370.69;;;15.68;66.38
23677;BME280;31493;49.058;12.190;2023-05-19T12:02:00;96379.44;;;16.39;64.16
23677;BME280;31493;49.058;12.190;2023-05-19T12:04:27;96382.28;;;16.05;63.57
23677;BME280;31493;49.058;12.190;2023-05-19T12:06:54;96377.66;;;16.09;66.04
23677;BME280;31493;49.058;12.190;2023-05-19T12:09:23;96384.03;;;16.26;64.94
23677;BME280;31493;49.058;12.190;2023-05-19T12:11:50;96371.91;;;16.15;64.63
23677;BME280;31493;49.058;12.190;2023-05-19T12:14:18;96381.38;;;16.56;64.89
23677;BME280;31493;49.058;12.190;2023-05-19T12:16:45;96378.75;;;16.47;64.58
23677;BME280;31493;49.058;12.190;2023-05-19T12:19:12;96373.13;;;16.11;64.22
23677;BME280;31493;49.058;12.190;2023-05-19T12:21:39;96381.09;;;16.50;63.33
23677;BME280;31493;49.058;12.190;2023-05-19T12:24:07;96373.75;;;16.74;64.30
23677;BME280;31493;49.058;12.190;2023-05-19T12:26:35;96370.09;;;16.46;65.08
23677;BME280;31493;49.058;12.190;2023-05-19T12:29:04;96367.75;;;16.12;64.48
23677;BME280;31493;49.058;12.190;2023-05-19T12:31:31;96371.09;;;16.64;65.09
23677;BME280;31493;49.058;12.190;2023-05-19T12:33:58;96365.44;;;16.59;65.60
23677;BME280;31493;49.058;12.190;2023-05-19T12:36:26;96363.22;;;16.55;63.91
23677;BME280;31493;49.058;12.190;2023-05-19T12:38:53;96363.22;;;16.45;65.20
23677;BME280;31493;49.058;12.190;2023-05-19T12:41:22;96356.34;;;16.54;64.36
23677;BME280;31493;49.058;12.190;2023-05-19T12:43:51;96359.31;;;16.70;64.76
23677;BME280;31493;49.058;12.190;2023-05-19T12:46:18;96347.66;;;17.13;63.83
23677;BME280;31493;49.058;12.190;2023-05-19T12:48:47;96350.97;;;16.46;65.12
23677;BME280;31493;49.058;12.190;2023-05-19T12:51:17;96343.44;;;16.52;65.02
23677;BME280;31493;49.058;12.190;2023-05-19T12:53:45;96347.22;;;16.98;66.10
23677;BME280;31493;49.058;12.190;2023-05-19T12:56:13;96350.94;;;16.86;65.09
23677;BME280;31493;49.058;12.190;2023-05-19T12:58:42;96340.06;;;16.71;63.87
23677;BME280;31493;49.058;12.190;2023-05-19T13:01:17;96337.34;;;17.02;64.70
23677;BME280;31493;49.058;12.190;2023-05-19T13:03:44;96345.75;;;16.55;64.91